Portada
METAR-TAF:

METAR-TAF

Aeroports :

Rarotonga, Illes Cook

latitud: 21-12S, longitud: 159-49W, altitud: 7 m

Observació

L'informe es va fer fa 24 minuts, a les 08:00 UTC
Vent 7 kt del Est
Temperatura 27°C
Humitat 84%
Pressió 1014 hPa
Visibilitat 10 km o més
Escasses núvols a una alçada de 2300 ft

METAR: NCRG 300800Z 08007KT 9999 FEW023 27/24 Q1014

Hora: 22:24 (08:24 UTC)

Pronòstic

L'informe es va fer fa 3 hores i 8 minuts, a les 05:16 UTC
Pronòstic vàlid del 30 a les 06 UTC al 31 a les 06 UTC
Vent 8 kt del Est/Nord-Est
Visibilitat 10 km o més
Núvols disperses a una alçada de 2300 ft
Probabilitat 30% :
Temporalment
l' 31 a les 00 UTC al 31 a les 06 UTC
Visibilitat: 5000 m
Cel ennuvolat a una alçada de 1500 ft
Escasses núvols a una alçada de 1600 ft, Cumulonimbus.
tempesta, pluja

TAF: NCRG 300516Z 3006/3106 07008KT 9999 SCT023 PROB30 TEMPO 3100/3106 5000 TSRA BKN015 FEW016CB

Observacions i pronòstics meteorològics de més de 4000 aeroports (METAR i TAF).

Les estacions disponibles són els punts grocs i vermells al mapa.

Posi el ratolí al punt desitjat per veure el nom de l'estació.

Feu clic per veure les observacions i els pronòstics meteorològics.

Per canviar el mapa: feu clic els botons verds amb una creu de color negre per apropar; al botó verd amb un guió per allunyar la imatge; o en les fletxes verdes per a mapes adjacents.


METAR-TAF: